sensor_id;sensor_type;location;lat;lon;timestamp;pressure;altitude;pressure_sealevel;temperature;humidity
58919;BME280;44704;50.122;19.932;2023-01-30T00:01:20;98499.83;;;-3.24;80.82
58919;BME280;44704;50.122;19.932;2023-01-30T00:03:47;98495.30;;;-3.21;80.60
58919;BME280;44704;50.122;19.932;2023-01-30T00:06:15;98488.31;;;-3.19;80.69
58919;BME280;44704;50.122;19.932;2023-01-30T00:08:42;98487.77;;;-3.17;80.56
58919;BME280;44704;50.122;19.932;2023-01-30T00:11:11;98480.12;;;-3.15;80.60
58919;BME280;44704;50.122;19.932;2023-01-30T00:13:38;98476.37;;;-3.13;80.65
58919;BME280;44704;50.122;19.932;2023-01-30T00:16:06;98469.46;;;-3.13;80.43
58919;BME280;44704;50.122;19.932;2023-01-30T00:18:35;98464.48;;;-3.13;80.38
58919;BME280;44704;50.122;19.932;2023-01-30T00:21:04;98456.49;;;-3.13;80.62
58919;BME280;44704;50.122;19.932;2023-01-30T00:23:33;98450.20;;;-3.12;80.62
58919;BME280;44704;50.122;19.932;2023-01-30T00:26:01;98444.89;;;-3.11;80.30
58919;BME280;44704;50.122;19.932;2023-01-30T00:28:27;98443.61;;;-3.11;80.21
58919;BME280;44704;50.122;19.932;2023-01-30T00:30:55;98432.48;;;-3.09;80.20
58919;BME280;44704;50.122;19.932;2023-01-30T00:33:24;98424.29;;;-3.09;80.35
58919;BME280;44704;50.122;19.932;2023-01-30T00:35:53;98419.63;;;-3.07;80.44
58919;BME280;44704;50.122;19.932;2023-01-30T00:38:21;98413.95;;;-3.05;80.44
58919;BME280;44704;50.122;19.932;2023-01-30T00:40:49;98404.10;;;-3.04;80.10
58919;BME280;44704;50.122;19.932;2023-01-30T00:43:17;98393.22;;;-3.02;80.25
58919;BME280;44704;50.122;19.932;2023-01-30T00:46:08;98387.03;;;-3.01;80.28
58919;BME280;44704;50.122;19.932;2023-01-30T00:48:55;98382.38;;;-3.00;80.17
58919;BME280;44704;50.122;19.932;2023-01-30T00:51:21;98378.27;;;-3.00;80.25
58919;BME280;44704;50.122;19.932;2023-01-30T00:53:48;98375.85;;;-2.99;80.21
58919;BME280;44704;50.122;19.932;2023-01-30T00:56:15;98373.69;;;-2.99;80.03
58919;BME280;44704;50.122;19.932;2023-01-30T00:58:42;98366.77;;;-2.99;80.18
58919;BME280;44704;50.122;19.932;2023-01-30T01:01:11;98360.58;;;-2.97;80.31
58919;BME280;44704;50.122;19.932;2023-01-30T01:03:38;98354.41;;;-2.96;80.14
58919;BME280;44704;50.122;19.932;2023-01-30T01:06:05;98348.63;;;-2.95;80.12
58919;BME280;44704;50.122;19.932;2023-01-30T01:08:32;98335.95;;;-2.95;80.29
58919;BME280;44704;50.122;19.932;2023-01-30T01:10:59;98331.30;;;-2.93;80.40
58919;BME280;44704;50.122;19.932;2023-01-30T01:13:26;98327.95;;;-2.91;80.40
58919;BME280;44704;50.122;19.932;2023-01-30T01:15:53;98322.13;;;-2.90;80.35
58919;BME280;44704;50.122;19.932;2023-01-30T01:18:20;98315.27;;;-2.89;80.40
58919;BME280;44704;50.122;19.932;2023-01-30T01:20:47;98315.60;;;-2.89;80.39
58919;BME280;44704;50.122;19.932;2023-01-30T01:23:14;98313.80;;;-2.89;80.34
58919;BME280;44704;50.122;19.932;2023-01-30T01:25:41;98305.84;;;-2.89;80.23
58919;BME280;44704;50.122;19.932;2023-01-30T01:28:08;98296.91;;;-2.90;80.26
58919;BME280;44704;50.122;19.932;2023-01-30T01:30:36;98298.25;;;-2.89;80.25
58919;BME280;44704;50.122;19.932;2023-01-30T01:33:03;98295.18;;;-2.89;80.42
58919;BME280;44704;50.122;19.932;2023-01-30T01:35:30;98290.64;;;-2.90;80.29
58919;BME280;44704;50.122;19.932;2023-01-30T01:37:57;98283.95;;;-2.92;80.26
58919;BME280;44704;50.122;19.932;2023-01-30T01:40:24;98274.29;;;-2.94;80.18
58919;BME280;44704;50.122;19.932;2023-01-30T01:43:15;98266.73;;;-2.97;80.30
58919;BME280;44704;50.122;19.932;2023-01-30T01:45:44;98262.59;;;-3.00;80.52
58919;BME280;44704;50.122;19.932;2023-01-30T01:48:21;98262.59;;;-3.01;80.58
58919;BME280;44704;50.122;19.932;2023-01-30T01:51:16;98256.62;;;-3.05;80.24
58919;BME280;44704;50.122;19.932;2023-01-30T01:53:57;98245.90;;;-3.10;80.56
58919;BME280;44704;50.122;19.932;2023-01-30T01:56:26;98241.40;;;-3.13;80.82
58919;BME280;44704;50.122;19.932;2023-01-30T01:58:56;98238.19;;;-3.14;80.91
58919;BME280;44704;50.122;19.932;2023-01-30T02:01:28;98234.30;;;-3.16;80.83
58919;BME280;44704;50.122;19.932;2023-01-30T02:03:59;98226.02;;;-3.18;80.70
58919;BME280;44704;50.122;19.932;2023-01-30T02:06:29;98221.83;;;-3.22;80.84
58919;BME280;44704;50.122;19.932;2023-01-30T02:09:03;98221.52;;;-3.26;81.14
58919;BME280;44704;50.122;19.932;2023-01-30T02:11:38;98216.84;;;-3.29;81.04
58919;BME280;44704;50.122;19.932;2023-01-30T02:14:10;98211.12;;;-3.32;81.34
58919;BME280;44704;50.122;19.932;2023-01-30T02:16:37;98213.27;;;-3.35;81.29
58919;BME280;44704;50.122;19.932;2023-01-30T02:19:19;98202.98;;;-3.39;81.35
58919;BME280;44704;50.122;19.932;2023-01-30T02:25:04;98193.10;;;-3.42;81.68
58919;BME280;44704;50.122;19.932;2023-01-30T02:33:46;98193.13;;;-3.53;81.94
58919;BME280;44704;50.122;19.932;2023-01-30T02:37:00;98189.52;;;-3.57;81.93
58919;BME280;44704;50.122;19.932;2023-01-30T02:39:32;98186.01;;;-3.63;82.02
58919;BME280;44704;50.122;19.932;2023-01-30T02:47:23;98162.68;;;-3.75;82.10
58919;BME280;44704;50.122;19.932;2023-01-30T02:49:57;98163.20;;;-3.79;82.38
58919;BME280;44704;50.122;19.932;2023-01-30T02:52:27;98160.44;;;-3.81;82.17
58919;BME280;44704;50.122;19.932;2023-01-30T02:54:55;98155.92;;;-3.84;82.44
58919;BME280;44704;50.122;19.932;2023-01-30T02:57:24;98148.98;;;-3.86;82.37
58919;BME280;44704;50.122;19.932;2023-01-30T03:00:01;98145.36;;;-3.87;82.36
58919;BME280;44704;50.122;19.932;2023-01-30T03:02:41;98141.28;;;-3.90;82.45
58919;BME280;44704;50.122;19.932;2023-01-30T03:06:09;98135.13;;;-3.92;82.52
58919;BME280;44704;50.122;19.932;2023-01-30T03:08:47;98126.44;;;-3.94;82.43
58919;BME280;44704;50.122;19.932;2023-01-30T03:11:18;98127.56;;;-3.94;82.52
58919;BME280;44704;50.122;19.932;2023-01-30T03:16:46;98118.83;;;-3.94;82.82
58919;BME280;44704;50.122;19.932;2023-01-30T03:19:14;98122.55;;;-3.94;82.98
58919;BME280;44704;50.122;19.932;2023-01-30T03:21:44;98116.64;;;-3.93;82.99
58919;BME280;44704;50.122;19.932;2023-01-30T03:24:12;98108.84;;;-3.93;82.71
58919;BME280;44704;50.122;19.932;2023-01-30T03:26:51;98101.48;;;-3.92;83.09
58919;BME280;44704;50.122;19.932;2023-01-30T03:29:22;98103.08;;;-3.91;82.95
58919;BME280;44704;50.122;19.932;2023-01-30T03:31:50;98102.45;;;-3.90;82.97
58919;BME280;44704;50.122;19.932;2023-01-30T03:34:17;98102.52;;;-3.89;82.56
58919;BME280;44704;50.122;19.932;2023-01-30T03:36:45;98101.59;;;-3.87;82.89
58919;BME280;44704;50.122;19.932;2023-01-30T03:39:13;98096.38;;;-3.86;83.16
58919;BME280;44704;50.122;19.932;2023-01-30T03:41:40;98093.52;;;-3.86;82.43
58919;BME280;44704;50.122;19.932;2023-01-30T03:44:08;98082.71;;;-3.86;82.52
58919;BME280;44704;50.122;19.932;2023-01-30T03:46:34;98078.31;;;-3.86;82.27
58919;BME280;44704;50.122;19.932;2023-01-30T03:49:01;98076.30;;;-3.87;82.21
58919;BME280;44704;50.122;19.932;2023-01-30T03:51:28;98070.79;;;-3.87;81.94
58919;BME280;44704;50.122;19.932;2023-01-30T03:53:55;98067.91;;;-3.87;81.65
58919;BME280;44704;50.122;19.932;2023-01-30T03:56:22;98064.63;;;-3.88;81.78
58919;BME280;44704;50.122;19.932;2023-01-30T03:58:49;98057.58;;;-3.88;81.74
58919;BME280;44704;50.122;19.932;2023-01-30T04:01:18;98053.79;;;-3.89;80.96
58919;BME280;44704;50.122;19.932;2023-01-30T04:03:46;98048.80;;;-3.89;80.94
58919;BME280;44704;50.122;19.932;2023-01-30T04:06:14;98045.33;;;-3.90;80.91
58919;BME280;44704;50.122;19.932;2023-01-30T04:08:41;98043.10;;;-3.90;80.86
58919;BME280;44704;50.122;19.932;2023-01-30T04:11:08;98035.73;;;-3.91;80.25
58919;BME280;44704;50.122;19.932;2023-01-30T04:13:35;98033.89;;;-3.92;80.19
58919;BME280;44704;50.122;19.932;2023-01-30T04:16:23;98029.50;;;-3.92;80.23
58919;BME280;44704;50.122;19.932;2023-01-30T04:19:08;98024.71;;;-3.94;79.98
58919;BME280;44704;50.122;19.932;2023-01-30T04:21:35;98021.67;;;-3.96;79.79
58919;BME280;44704;50.122;19.932;2023-01-30T04:24:03;98022.41;;;-3.96;79.63
58919;BME280;44704;50.122;19.932;2023-01-30T04:26:30;98020.58;;;-3.95;79.31
58919;BME280;44704;50.122;19.932;2023-01-30T04:28:57;98020.38;;;-3.95;79.09
58919;BME280;44704;50.122;19.932;2023-01-30T04:31:25;98014.20;;;-3.95;79.31
58919;BME280;44704;50.122;19.932;2023-01-30T04:34:05;98008.02;;;-3.96;79.60
58919;BME280;44704;50.122;19.932;2023-01-30T04:36:32;98001.33;;;-3.94;79.24
58919;BME280;44704;50.122;19.932;2023-01-30T04:38:59;98001.75;;;-3.93;79.62
58919;BME280;44704;50.122;19.932;2023-01-30T04:41:27;97999.71;;;-3.92;79.10
58919;BME280;44704;50.122;19.932;2023-01-30T04:43:57;97996.89;;;-3.91;79.24
58919;BME280;44704;50.122;19.932;2023-01-30T04:46:42;97989.45;;;-3.89;79.34
58919;BME280;44704;50.122;19.932;2023-01-30T04:49:11;97980.24;;;-3.88;78.95
58919;BME280;44704;50.122;19.932;2023-01-30T04:51:38;97973.99;;;-3.87;78.65
58919;BME280;44704;50.122;19.932;2023-01-30T04:54:05;97969.06;;;-3.86;78.50
58919;BME280;44704;50.122;19.932;2023-01-30T04:56:32;97966.41;;;-3.83;78.22
58919;BME280;44704;50.122;19.932;2023-01-30T04:59:00;97972.36;;;-3.80;78.16
58919;BME280;44704;50.122;19.932;2023-01-30T05:01:30;97973.36;;;-3.78;78.23
58919;BME280;44704;50.122;19.932;2023-01-30T05:03:58;97973.63;;;-3.76;77.85
58919;BME280;44704;50.122;19.932;2023-01-30T05:06:25;97974.30;;;-3.74;77.60
58919;BME280;44704;50.122;19.932;2023-01-30T05:08:54;97980.31;;;-3.70;77.38
58919;BME280;44704;50.122;19.932;2023-01-30T05:11:22;97976.02;;;-3.67;77.34
58919;BME280;44704;50.122;19.932;2023-01-30T05:13:50;97973.69;;;-3.64;76.26
58919;BME280;44704;50.122;19.932;2023-01-30T05:16:18;97974.80;;;-3.60;76.15
58919;BME280;44704;50.122;19.932;2023-01-30T05:18:45;97975.52;;;-3.56;75.37
58919;BME280;44704;50.122;19.932;2023-01-30T05:21:14;97964.77;;;-3.51;74.98
58919;BME280;44704;50.122;19.932;2023-01-30T05:23:42;97959.21;;;-3.48;74.86
58919;BME280;44704;50.122;19.932;2023-01-30T05:26:11;97952.42;;;-3.44;74.63
58919;BME280;44704;50.122;19.932;2023-01-30T05:28:38;97947.55;;;-3.40;74.71
58919;BME280;44704;50.122;19.932;2023-01-30T05:31:07;97939.77;;;-3.37;74.50
58919;BME280;44704;50.122;19.932;2023-01-30T05:33:35;97936.30;;;-3.34;73.82
58919;BME280;44704;50.122;19.932;2023-01-30T05:36:02;97924.35;;;-3.32;73.54
58919;BME280;44704;50.122;19.932;2023-01-30T05:38:29;97914.59;;;-3.31;72.88
58919;BME280;44704;50.122;19.932;2023-01-30T05:40:59;97920.09;;;-3.29;73.03
58919;BME280;44704;50.122;19.932;2023-01-30T05:43:27;97918.31;;;-3.26;72.96
58919;BME280;44704;50.122;19.932;2023-01-30T05:45:56;97918.58;;;-3.25;73.11
58919;BME280;44704;50.122;19.932;2023-01-30T05:48:24;97919.43;;;-3.23;73.18
58919;BME280;44704;50.122;19.932;2023-01-30T05:50:52;97920.23;;;-3.21;73.20
58919;BME280;44704;50.122;19.932;2023-01-30T05:53:20;97921.67;;;-3.18;73.26
58919;BME280;44704;50.122;19.932;2023-01-30T05:55:58;97911.69;;;-3.16;72.92
58919;BME280;44704;50.122;19.932;2023-01-30T05:58:25;97902.15;;;-3.14;72.77
58919;BME280;44704;50.122;19.932;2023-01-30T06:00:53;97900.09;;;-3.12;72.79
58919;BME280;44704;50.122;19.932;2023-01-30T06:03:20;97894.26;;;-3.11;72.61
58919;BME280;44704;50.122;19.932;2023-01-30T06:05:47;97894.20;;;-3.10;72.78
58919;BME280;44704;50.122;19.932;2023-01-30T06:08:13;97889.70;;;-3.10;72.78
58919;BME280;44704;50.122;19.932;2023-01-30T06:10:40;97893.98;;;-3.08;72.91
58919;BME280;44704;50.122;19.932;2023-01-30T06:13:07;97890.74;;;-3.08;72.56
58919;BME280;44704;50.122;19.932;2023-01-30T06:15:37;97895.92;;;-3.08;72.70
58919;BME280;44704;50.122;19.932;2023-01-30T06:18:04;97892.29;;;-3.07;72.86
58919;BME280;44704;50.122;19.932;2023-01-30T06:20:30;97888.13;;;-3.07;73.07
58919;BME280;44704;50.122;19.932;2023-01-30T06:22:57;97878.48;;;-3.06;73.15
58919;BME280;44704;50.122;19.932;2023-01-30T06:25:24;97863.88;;;-3.06;72.97
58919;BME280;44704;50.122;19.932;2023-01-30T06:27:51;97860.98;;;-3.05;73.05
58919;BME280;44704;50.122;19.932;2023-01-30T06:30:18;97854.20;;;-3.05;72.97
58919;BME280;44704;50.122;19.932;2023-01-30T06:32:49;97848.00;;;-3.05;72.98
58919;BME280;44704;50.122;19.932;2023-01-30T06:35:16;97844.10;;;-3.05;72.94
58919;BME280;44704;50.122;19.932;2023-01-30T06:37:44;97847.21;;;-3.06;72.54
58919;BME280;44704;50.122;19.932;2023-01-30T06:40:11;97842.58;;;-3.06;72.64
58919;BME280;44704;50.122;19.932;2023-01-30T06:42:43;97843.41;;;-3.05;72.76
58919;BME280;44704;50.122;19.932;2023-01-30T06:45:11;97841.34;;;-3.04;72.68
58919;BME280;44704;50.122;19.932;2023-01-30T06:47:51;97842.04;;;-3.04;72.30
58919;BME280;44704;50.122;19.932;2023-01-30T06:50:24;97836.70;;;-3.04;72.30
58919;BME280;44704;50.122;19.932;2023-01-30T06:52:52;97825.81;;;-3.03;72.05
58919;BME280;44704;50.122;19.932;2023-01-30T06:55:23;97819.27;;;-3.04;71.77
58919;BME280;44704;50.122;19.932;2023-01-30T07:00:28;97818.48;;;-3.01;72.25
58919;BME280;44704;50.122;19.932;2023-01-30T07:02:56;97818.27;;;-3.00;72.38
58919;BME280;44704;50.122;19.932;2023-01-30T07:05:23;97808.34;;;-2.98;72.17
58919;BME280;44704;50.122;19.932;2023-01-30T07:07:50;97785.58;;;-2.97;72.04
58919;BME280;44704;50.122;19.932;2023-01-30T07:10:17;97791.24;;;-2.95;72.10
58919;BME280;44704;50.122;19.932;2023-01-30T07:12:45;97784.70;;;-2.93;71.80
58919;BME280;44704;50.122;19.932;2023-01-30T07:15:12;97785.82;;;-2.91;72.03
58919;BME280;44704;50.122;19.932;2023-01-30T07:17:40;97780.01;;;-2.88;72.05
58919;BME280;44704;50.122;19.932;2023-01-30T07:20:09;97778.23;;;-2.85;72.29
58919;BME280;44704;50.122;19.932;2023-01-30T07:22:36;97778.35;;;-2.81;72.05
58919;BME280;44704;50.122;19.932;2023-01-30T07:25:03;97774.73;;;-2.79;71.62
58919;BME280;44704;50.122;19.932;2023-01-30T07:27:31;97782.05;;;-2.78;71.70
58919;BME280;44704;50.122;19.932;2023-01-30T07:29:58;97777.40;;;-2.76;71.81
58919;BME280;44704;50.122;19.932;2023-01-30T07:32:25;97777.77;;;-2.75;71.81
58919;BME280;44704;50.122;19.932;2023-01-30T07:34:52;97778.48;;;-2.73;71.67
58919;BME280;44704;50.122;19.932;2023-01-30T07:37:19;97781.34;;;-2.72;71.75
58919;BME280;44704;50.122;19.932;2023-01-30T07:39:46;97785.52;;;-2.70;71.72
58919;BME280;44704;50.122;19.932;2023-01-30T07:42:13;97779.74;;;-2.67;71.76
58919;BME280;44704;50.122;19.932;2023-01-30T07:44:40;97779.05;;;-2.64;71.70
58919;BME280;44704;50.122;19.932;2023-01-30T07:47:07;97779.87;;;-2.60;72.03
58919;BME280;44704;50.122;19.932;2023-01-30T07:49:34;97784.72;;;-2.56;72.06
58919;BME280;44704;50.122;19.932;2023-01-30T07:52:01;97780.73;;;-2.51;72.04
58919;BME280;44704;50.122;19.932;2023-01-30T07:54:27;97767.08;;;-2.45;71.88
58919;BME280;44704;50.122;19.932;2023-01-30T07:56:54;97751.08;;;-2.40;71.83
58919;BME280;44704;50.122;19.932;2023-01-30T07:59:21;97750.02;;;-2.36;72.02
58919;BME280;44704;50.122;19.932;2023-01-30T08:01:48;97754.67;;;-2.32;71.50
58919;BME280;44704;50.122;19.932;2023-01-30T08:04:15;97758.67;;;-2.28;71.50
58919;BME280;44704;50.122;19.932;2023-01-30T08:06:42;97757.51;;;-2.24;71.30
58919;BME280;44704;50.122;19.932;2023-01-30T08:09:09;97750.48;;;-2.19;70.88
58919;BME280;44704;50.122;19.932;2023-01-30T08:11:36;97752.92;;;-2.13;71.46
58919;BME280;44704;50.122;19.932;2023-01-30T08:14:02;97749.89;;;-2.06;71.40
58919;BME280;44704;50.122;19.932;2023-01-30T08:16:29;97738.27;;;-2.00;71.01
58919;BME280;44704;50.122;19.932;2023-01-30T08:18:57;97724.68;;;-1.93;71.00
58919;BME280;44704;50.122;19.932;2023-01-30T08:21:25;97723.16;;;-1.85;71.00
58919;BME280;44704;50.122;19.932;2023-01-30T08:23:52;97724.93;;;-1.79;70.33
58919;BME280;44704;50.122;19.932;2023-01-30T08:26:19;97723.48;;;-1.73;70.01
58919;BME280;44704;50.122;19.932;2023-01-30T08:28:46;97724.36;;;-1.66;69.99
58919;BME280;44704;50.122;19.932;2023-01-30T08:31:15;97715.80;;;-1.61;69.51
58919;BME280;44704;50.122;19.932;2023-01-30T08:33:43;97711.45;;;-1.54;69.23
58919;BME280;44704;50.122;19.932;2023-01-30T08:36:09;97698.09;;;-1.48;68.78
58919;BME280;44704;50.122;19.932;2023-01-30T08:38:36;97691.33;;;-1.40;69.13
58919;BME280;44704;50.122;19.932;2023-01-30T08:41:04;97689.27;;;-1.29;68.40
58919;BME280;44704;50.122;19.932;2023-01-30T08:43:33;97693.81;;;-1.20;68.23
58919;BME280;44704;50.122;19.932;2023-01-30T08:46:00;97698.06;;;-1.11;68.11
58919;BME280;44704;50.122;19.932;2023-01-30T08:48:27;97700.44;;;-1.03;68.11
58919;BME280;44704;50.122;19.932;2023-01-30T08:50:55;97695.95;;;-0.96;68.21
58919;BME280;44704;50.122;19.932;2023-01-30T08:53:22;97690.81;;;-0.87;67.61
58919;BME280;44704;50.122;19.932;2023-01-30T08:55:52;97684.44;;;-0.79;67.82
58919;BME280;44704;50.122;19.932;2023-01-30T08:58:20;97676.83;;;-0.69;67.53
58919;BME280;44704;50.122;19.932;2023-01-30T09:00:47;97667.10;;;-0.62;67.38
58919;BME280;44704;50.122;19.932;2023-01-30T09:03:15;97644.63;;;-0.53;67.36
58919;BME280;44704;50.122;19.932;2023-01-30T09:05:44;97642.38;;;-0.45;67.71
58919;BME280;44704;50.122;19.932;2023-01-30T09:08:11;97655.71;;;-0.39;67.15
58919;BME280;44704;50.122;19.932;2023-01-30T09:10:38;97644.80;;;-0.33;67.40
58919;BME280;44704;50.122;19.932;2023-01-30T09:13:08;97644.82;;;-0.26;67.32
58919;BME280;44704;50.122;19.932;2023-01-30T09:15:35;97638.42;;;-0.21;67.17
58919;BME280;44704;50.122;19.932;2023-01-30T09:18:02;97643.90;;;-0.15;67.50
58919;BME280;44704;50.122;19.932;2023-01-30T09:20:31;97639.65;;;-0.09;66.99
58919;BME280;44704;50.122;19.932;2023-01-30T09:22:58;97639.91;;;-0.08;66.93
58919;BME280;44704;50.122;19.932;2023-01-30T09:25:25;97640.05;;;-0.06;66.86
58919;BME280;44704;50.122;19.932;2023-01-30T09:27:52;97634.70;;;-0.04;67.31
58919;BME280;44704;50.122;19.932;2023-01-30T09:30:19;97636.34;;;-0.05;67.17
58919;BME280;44704;50.122;19.932;2023-01-30T09:32:47;97624.52;;;-0.07;67.39
58919;BME280;44704;50.122;19.932;2023-01-30T09:35:15;97617.41;;;-0.10;67.74
58919;BME280;44704;50.122;19.932;2023-01-30T09:37:49;97622.30;;;-0.12;68.22
58919;BME280;44704;50.122;19.932;2023-01-30T09:40:27;97616.11;;;-0.15;68.54
58919;BME280;44704;50.122;19.932;2023-01-30T09:43:28;97603.38;;;-0.19;68.98
58919;BME280;44704;50.122;19.932;2023-01-30T09:54:17;97597.34;;;-0.30;70.36
58919;BME280;44704;50.122;19.932;2023-01-30T09:56:55;97593.39;;;-0.30;70.48
58919;BME280;44704;50.122;19.932;2023-01-30T09:59:31;97593.35;;;-0.28;70.63
58919;BME280;44704;50.122;19.932;2023-01-30T10:02:27;97589.37;;;-0.27;70.77
58919;BME280;44704;50.122;19.932;2023-01-30T10:04:57;97579.80;;;-0.23;70.76
58919;BME280;44704;50.122;19.932;2023-01-30T10:08:06;97577.20;;;-0.16;71.10
58919;BME280;44704;50.122;19.932;2023-01-30T10:10:57;97568.77;;;-0.08;71.06
58919;BME280;44704;50.122;19.932;2023-01-30T10:13:59;97561.11;;;0.02;71.00
58919;BME280;44704;50.122;19.932;2023-01-30T10:16:58;97542.36;;;0.13;71.18
58919;BME280;44704;50.122;19.932;2023-01-30T10:19:54;97530.76;;;0.31;71.22
58919;BME280;44704;50.122;19.932;2023-01-30T10:22:47;97519.58;;;0.45;71.02
58919;BME280;44704;50.122;19.932;2023-01-30T10:28:39;97511.45;;;0.73;70.56
58919;BME280;44704;50.122;19.932;2023-01-30T10:31:11;97499.20;;;0.78;70.40
58919;BME280;44704;50.122;19.932;2023-01-30T10:33:49;97500.73;;;0.78;70.48
58919;BME280;44704;50.122;19.932;2023-01-30T10:36:28;97487.02;;;0.74;71.18
58919;BME280;44704;50.122;19.932;2023-01-30T10:39:01;97484.66;;;0.70;71.74
58919;BME280;44704;50.122;19.932;2023-01-30T10:41:35;97481.15;;;0.66;72.15
58919;BME280;44704;50.122;19.932;2023-01-30T10:44:11;97480.66;;;0.60;72.69
58919;BME280;44704;50.122;19.932;2023-01-30T10:49:46;97477.26;;;0.44;73.31
58919;BME280;44704;50.122;19.932;2023-01-30T10:55:30;97483.14;;;0.30;74.44
58919;BME280;44704;50.122;19.932;2023-01-30T10:58:20;97484.73;;;0.28;75.11
58919;BME280;44704;50.122;19.932;2023-01-30T11:03:50;97481.16;;;0.28;76.18
58919;BME280;44704;50.122;19.932;2023-01-30T11:06:23;97473.61;;;0.28;76.51
58919;BME280;44704;50.122;19.932;2023-01-30T11:08:52;97470.94;;;0.26;77.18
58919;BME280;44704;50.122;19.932;2023-01-30T11:11:26;97462.23;;;0.21;77.39
58919;BME280;44704;50.122;19.932;2023-01-30T11:14:08;97459.80;;;0.18;77.85
58919;BME280;44704;50.122;19.932;2023-01-30T11:16:55;97461.88;;;0.14;78.23
58919;BME280;44704;50.122;19.932;2023-01-30T11:19:33;97452.20;;;0.12;78.46
58919;BME280;44704;50.122;19.932;2023-01-30T11:22:03;97441.88;;;0.12;78.84
58919;BME280;44704;50.122;19.932;2023-01-30T11:24:42;97439.98;;;0.15;79.27
58919;BME280;44704;50.122;19.932;2023-01-30T11:27:31;97438.79;;;0.19;79.61
58919;BME280;44704;50.122;19.932;2023-01-30T11:30:13;97434.84;;;0.23;79.62
58919;BME280;44704;50.122;19.932;2023-01-30T11:32:47;97425.29;;;0.25;79.91
58919;BME280;44704;50.122;19.932;2023-01-30T11:35:22;97425.21;;;0.28;79.96
58919;BME280;44704;50.122;19.932;2023-01-30T11:37:50;97416.08;;;0.33;80.07
58919;BME280;44704;50.122;19.932;2023-01-30T11:40:23;97414.50;;;0.36;80.38
58919;BME280;44704;50.122;19.932;2023-01-30T11:42:57;97413.73;;;0.37;80.42
58919;BME280;44704;50.122;19.932;2023-01-30T11:45:25;97402.89;;;0.36;80.32
58919;BME280;44704;50.122;19.932;2023-01-30T11:47:57;97397.20;;;0.36;80.56
58919;BME280;44704;50.122;19.932;2023-01-30T11:50:30;97394.20;;;0.35;80.73
58919;BME280;44704;50.122;19.932;2023-01-30T11:53:03;97398.44;;;0.30;80.76
58919;BME280;44704;50.122;19.932;2023-01-30T11:55:35;97395.02;;;0.26;81.31
58919;BME280;44704;50.122;19.932;2023-01-30T11:58:07;97390.08;;;0.22;81.73
58919;BME280;44704;50.122;19.932;2023-01-30T12:00:40;97388.66;;;0.14;81.92
58919;BME280;44704;50.122;19.932;2023-01-30T12:03:13;97390.77;;;0.09;82.19
58919;BME280;44704;50.122;19.932;2023-01-30T12:05:44;97388.70;;;0.05;82.51
58919;BME280;44704;50.122;19.932;2023-01-30T12:08:23;97383.46;;;0.01;82.54
58919;BME280;44704;50.122;19.932;2023-01-30T12:10:57;97392.08;;;-0.02;82.61
58919;BME280;44704;50.122;19.932;2023-01-30T12:13:33;97379.06;;;-0.03;82.69
58919;BME280;44704;50.122;19.932;2023-01-30T12:22:19;97371.90;;;-0.02;83.03
58919;BME280;44704;50.122;19.932;2023-01-30T12:24:58;97368.81;;;-0.03;83.47
58919;BME280;44704;50.122;19.932;2023-01-30T12:30:23;97360.70;;;-0.03;83.47
58919;BME280;44704;50.122;19.932;2023-01-30T12:32:57;97363.33;;;-0.02;83.62
58919;BME280;44704;50.122;19.932;2023-01-30T12:35:36;97367.99;;;-0.00;83.76
58919;BME280;44704;50.122;19.932;2023-01-30T12:38:16;97366.96;;;0.01;83.77
58919;BME280;44704;50.122;19.932;2023-01-30T12:41:01;97355.52;;;-0.01;84.29
58919;BME280;44704;50.122;19.932;2023-01-30T12:43:42;97363.25;;;-0.03;84.14
58919;BME280;44704;50.122;19.932;2023-01-30T12:49:23;97358.05;;;-0.02;84.78
58919;BME280;44704;50.122;19.932;2023-01-30T13:00:29;97352.87;;;-0.01;84.80
58919;BME280;44704;50.122;19.932;2023-01-30T13:03:08;97356.95;;;-0.01;85.10
58919;BME280;44704;50.122;19.932;2023-01-30T13:06:01;97353.66;;;-0.01;85.28
58919;BME280;44704;50.122;19.932;2023-01-30T13:11:40;97349.70;;;-0.06;86.09
58919;BME280;44704;50.122;19.932;2023-01-30T13:16:50;97349.54;;;-0.12;86.81
58919;BME280;44704;50.122;19.932;2023-01-30T13:19:26;97348.63;;;-0.12;87.22
58919;BME280;44704;50.122;19.932;2023-01-30T13:27:23;97343.93;;;-0.11;87.91
58919;BME280;44704;50.122;19.932;2023-01-30T13:29:53;97340.05;;;-0.12;88.05
58919;BME280;44704;50.122;19.932;2023-01-30T13:32:33;97335.24;;;-0.13;88.17
58919;BME280;44704;50.122;19.932;2023-01-30T13:35:03;97329.52;;;-0.12;88.26
58919;BME280;44704;50.122;19.932;2023-01-30T13:37:33;97326.85;;;-0.10;88.44
58919;BME280;44704;50.122;19.932;2023-01-30T13:40:12;97327.52;;;-0.09;88.58
58919;BME280;44704;50.122;19.932;2023-01-30T13:43:02;97324.39;;;-0.09;89.04
58919;BME280;44704;50.122;19.932;2023-01-30T13:45:34;97317.95;;;-0.10;88.98
58919;BME280;44704;50.122;19.932;2023-01-30T13:51:03;97321.73;;;-0.13;89.18
58919;BME280;44704;50.122;19.932;2023-01-30T13:58:48;97316.02;;;-0.15;89.52
58919;BME280;44704;50.122;19.932;2023-01-30T14:01:16;97319.14;;;-0.15;89.59
58919;BME280;44704;50.122;19.932;2023-01-30T14:03:43;97313.17;;;-0.15;89.78
58919;BME280;44704;50.122;19.932;2023-01-30T14:06:35;97312.90;;;-0.14;90.10
58919;BME280;44704;50.122;19.932;2023-01-30T14:09:24;97311.89;;;-0.14;89.75
58919;BME280;44704;50.122;19.932;2023-01-30T14:11:59;97313.96;;;-0.14;90.30
58919;BME280;44704;50.122;19.932;2023-01-30T14:14:32;97323.92;;;-0.15;90.35
58919;BME280;44704;50.122;19.932;2023-01-30T14:17:15;97328.63;;;-0.17;90.74
58919;BME280;44704;50.122;19.932;2023-01-30T14:19:56;97324.91;;;-0.18;91.08
58919;BME280;44704;50.122;19.932;2023-01-30T14:22:54;97317.89;;;-0.20;91.13
58919;BME280;44704;50.122;19.932;2023-01-30T14:27:53;97308.86;;;-0.21;91.19
58919;BME280;44704;50.122;19.932;2023-01-30T14:32:58;97307.95;;;-0.21;91.28
58919;BME280;44704;50.122;19.932;2023-01-30T14:35:31;97298.80;;;-0.22;91.05
58919;BME280;44704;50.122;19.932;2023-01-30T14:40:41;97314.58;;;-0.21;90.90
58919;BME280;44704;50.122;19.932;2023-01-30T14:45:48;97310.41;;;-0.18;90.36